Time;durP1;ratioP1;P1;durP2;ratioP2;P2;SDS_P1;SDS_P2;PMS_P1;PMS_P2;Temp;Humidity;BMP_temperature;BMP_pressure;BME280_temperature;BME280_humidity;BME280_pressure;Samples;Min_cycle;Max_cycle;Signal;HPM_P1;HPM_P2
2022/10/26 00:01:47;;;;;;;14.17;12.47;;;8.30;99.90;;;;;;5093721;28;20601;-75
2022/10/26 00:04:15;;;;;;;16.03;12.83;;;8.30;99.90;;;;;;5093597;28;20648;-75
2022/10/26 00:06:42;;;;;;;14.73;13.17;;;8.30;99.90;;;;;;5093801;28;20281;-75
2022/10/26 00:09:09;;;;;;;14.40;12.93;;;8.30;99.90;;;;;;5093693;28;20723;-75
2022/10/26 00:11:35;;;;;;;15.93;13.13;;;8.30;99.90;;;;;;5093727;28;20197;-75
2022/10/26 00:14:02;;;;;;;15.63;13.03;;;8.40;99.90;;;;;;5093711;28;20200;-75
2022/10/26 00:16:29;;;;;;;17.17;13.70;;;8.30;99.90;;;;;;5093447;28;20651;-76
2022/10/26 00:18:55;;;;;;;14.77;12.50;;;8.40;99.90;;;;;;5093380;28;20651;-76
2022/10/26 00:21:23;;;;;;;17.80;12.60;;;8.40;99.90;;;;;;5093652;28;20193;-75
2022/10/26 00:23:50;;;;;;;16.40;12.90;;;8.40;99.90;;;;;;5093351;28;20651;-75
2022/10/26 00:26:17;;;;;;;17.33;12.43;;;8.40;99.90;;;;;;5093490;28;20241;-75
2022/10/26 00:28:43;;;;;;;17.37;12.73;;;8.40;99.90;;;;;;5093334;28;20234;-75
2022/10/26 00:31:13;;;;;;;17.40;13.73;;;8.40;99.90;;;;;;5093216;28;20196;-75
2022/10/26 00:33:40;;;;;;;18.60;13.80;;;8.50;99.90;;;;;;5093820;28;20196;-75
2022/10/26 00:36:08;;;;;;;16.57;12.83;;;8.40;99.90;;;;;;5093472;28;20242;-75
2022/10/26 00:38:37;;;;;;;14.37;11.97;;;8.40;99.90;;;;;;5093227;28;20627;-75
2022/10/26 00:41:04;;;;;;;14.30;11.33;;;8.40;99.90;;;;;;5093113;28;20629;-76
2022/10/26 00:43:38;;;;;;;18.03;11.77;;;8.30;99.90;;;;;;5093178;28;20200;-75
2022/10/26 00:46:09;;;;;;;17.40;12.77;;;8.40;99.90;;;;;;5092990;28;20200;-75
2022/10/26 00:48:39;;;;;;;15.33;12.53;;;8.40;99.90;;;;;;5093055;28;20624;-75
2022/10/26 00:51:10;;;;;;;15.33;13.00;;;8.40;99.90;;;;;;5093070;28;20197;-75
2022/10/26 00:53:39;;;;;;;16.77;12.10;;;8.40;99.90;;;;;;5093172;28;20254;-75
2022/10/26 00:56:06;;;;;;;13.73;12.07;;;8.40;99.90;;;;;;5092925;28;20200;-76
2022/10/26 00:58:35;;;;;;;15.17;12.43;;;8.30;99.90;;;;;;5092851;28;20200;-75
2022/10/26 01:01:02;;;;;;;16.10;13.13;;;8.40;99.90;;;;;;5092911;28;20196;-75
2022/10/26 01:03:30;;;;;;;18.00;14.90;;;8.40;99.90;;;;;;5092843;28;20228;-76
2022/10/26 01:05:58;;;;;;;18.50;16.07;;;8.40;99.90;;;;;;5092868;28;20201;-75
2022/10/26 01:08:27;;;;;;;25.30;19.73;;;8.40;99.90;;;;;;5092659;28;20767;-75
2022/10/26 01:10:56;;;;;;;23.67;19.43;;;8.40;99.90;;;;;;5092661;28;20647;-75
2022/10/26 01:13:23;;;;;;;25.27;20.73;;;8.40;99.90;;;;;;5093031;28;20253;-75
2022/10/26 01:15:58;;;;;;;22.43;19.43;;;8.50;99.90;;;;;;5092867;28;20242;-75
2022/10/26 01:18:35;;;;;;;24.07;20.77;;;8.50;99.90;;;;;;5092857;28;20616;-75
2022/10/26 01:21:24;;;;;;;40.60;23.00;;;8.50;99.90;;;;;;5092894;28;20199;-75
2022/10/26 01:24:06;;;;;;;22.60;15.33;;;8.60;99.90;;;;;;5092873;28;20241;-75
2022/10/26 01:26:53;;;;;;;14.50;11.63;;;8.70;99.90;;;;;;5092822;28;20241;-75
2022/10/26 01:29:55;;;;;;;14.63;12.33;;;8.70;99.90;;;;;;5092716;28;20204;-75
2022/10/26 01:32:29;;;;;;;16.93;10.70;;;8.70;99.90;;;;;;5079535;28;20192;-75
2022/10/26 01:35:03;;;;;;;16.03;10.53;;;8.70;99.90;;;;;;5092612;28;20715;-75
2022/10/26 01:37:35;;;;;;;15.60;11.07;;;8.80;99.90;;;;;;5092615;28;20253;-75
2022/10/26 01:40:09;;;;;;;13.43;10.83;;;8.80;99.90;;;;;;5092467;28;20655;-75
2022/10/26 01:42:41;;;;;;;14.90;10.63;;;8.80;99.90;;;;;;5092699;28;20196;-75
2022/10/26 01:45:11;;;;;;;16.93;11.80;;;8.90;99.90;;;;;;5092655;28;20241;-75
2022/10/26 01:47:40;;;;;;;13.90;11.73;;;9.00;99.90;;;;;;5092758;28;20220;-76
2022/10/26 01:50:09;;;;;;;14.87;11.20;;;8.90;99.90;;;;;;5092537;28;20269;-75
2022/10/26 01:52:36;;;;;;;13.80;10.90;;;9.00;99.90;;;;;;5092285;28;20204;-75
2022/10/26 01:55:06;;;;;;;22.53;14.60;;;9.00;99.90;;;;;;5092625;28;20485;-75
2022/10/26 01:57:35;;;;;;;25.20;15.63;;;9.00;99.90;;;;;;5092330;28;20720;-75
2022/10/26 02:00:07;;;;;;;24.97;16.70;;;9.10;99.90;;;;;;5092376;28;20254;-75
2022/10/26 02:03:00;;;;;;;14.37;11.40;;;9.10;99.90;;;;;;5092206;28;20249;-75
2022/10/26 02:05:36;;;;;;;16.20;11.10;;;9.10;99.90;;;;;;5092506;28;20246;-75
2022/10/26 02:08:15;;;;;;;13.07;10.30;;;9.10;99.90;;;;;;5092390;28;20220;-75
2022/10/26 02:10:53;;;;;;;14.67;11.07;;;9.20;99.90;;;;;;5092346;28;20192;-76
2022/10/26 02:13:29;;;;;;;12.77;10.30;;;9.30;99.90;;;;;;5095961;28;20196;-75
2022/10/26 02:16:00;;;;;;;13.00;9.97;;;9.20;99.90;;;;;;5096097;28;20615;-75
2022/10/26 02:18:34;;;;;;;16.00;10.47;;;9.30;99.90;;;;;;5095801;28;20696;-75
2022/10/26 02:21:05;;;;;;;18.03;10.83;;;9.30;99.90;;;;;;5095767;28;20196;-75
2022/10/26 02:23:35;;;;;;;13.23;10.90;;;9.20;99.90;;;;;;5095751;28;20672;-75
2022/10/26 02:26:05;;;;;;;16.97;11.57;;;9.30;99.90;;;;;;5095648;28;20196;-75
2022/10/26 02:28:35;;;;;;;15.43;10.93;;;9.30;99.90;;;;;;5095700;28;20270;-75
2022/10/26 02:31:06;;;;;;;13.43;10.53;;;9.30;99.90;;;;;;5095809;28;20257;-75
2022/10/26 02:33:39;;;;;;;16.43;10.27;;;9.30;99.90;;;;;;5095668;28;20196;-74
2022/10/26 02:36:13;;;;;;;13.07;10.37;;;9.40;99.90;;;;;;5095623;28;20237;-74
2022/10/26 02:38:41;;;;;;;12.87;10.93;;;9.40;99.90;;;;;;5095378;28;20639;-74
2022/10/26 02:41:10;;;;;;;13.77;10.63;;;9.40;99.90;;;;;;5095401;28;20846;-74
2022/10/26 02:43:43;;;;;;;16.33;10.20;;;9.40;99.90;;;;;;5095474;28;20241;-74
2022/10/26 02:46:13;;;;;;;15.93;10.60;;;9.40;99.90;;;;;;5095440;28;20197;-74
2022/10/26 02:48:41;;;;;;;12.07;10.77;;;9.50;99.90;;;;;;5095370;28;20224;-74
2022/10/26 02:51:12;;;;;;;12.90;10.60;;;9.50;99.90;;;;;;5095123;28;20234;-74
2022/10/26 02:53:44;;;;;;;14.47;10.80;;;9.50;99.90;;;;;;5095348;28;20201;-74
2022/10/26 02:56:17;;;;;;;13.30;10.93;;;9.50;99.90;;;;;;5095160;28;20643;-74
2022/10/26 02:58:47;;;;;;;13.43;10.93;;;9.50;99.90;;;;;;5095245;28;20240;-74
2022/10/26 03:01:15;;;;;;;15.37;11.13;;;9.50;99.90;;;;;;5094977;28;20724;-74
2022/10/26 03:03:43;;;;;;;13.07;10.87;;;9.50;99.90;;;;;;5094846;28;20282;-74
2022/10/26 03:06:09;;;;;;;13.47;10.23;;;9.60;99.90;;;;;;5095069;28;20192;-74
2022/10/26 03:08:36;;;;;;;16.30;10.40;;;9.60;99.90;;;;;;5094961;28;20224;-74
2022/10/26 03:11:03;;;;;;;16.60;10.83;;;9.60;99.90;;;;;;5094937;28;20277;-74
2022/10/26 03:13:29;;;;;;;12.80;10.47;;;9.60;99.90;;;;;;5094884;28;20249;-74
2022/10/26 03:15:56;;;;;;;11.87;10.60;;;9.60;99.90;;;;;;5094644;28;20192;-74
2022/10/26 03:18:23;;;;;;;14.27;10.80;;;9.60;99.90;;;;;;5094640;28;20727;-73
2022/10/26 03:20:51;;;;;;;15.37;10.60;;;9.60;99.90;;;;;;5094839;28;20204;-74
2022/10/26 03:23:18;;;;;;;13.93;9.97;;;9.60;99.90;;;;;;5094615;28;20197;-74
2022/10/26 03:25:44;;;;;;;13.63;10.50;;;9.60;99.90;;;;;;5094595;28;20250;-74
2022/10/26 03:28:11;;;;;;;14.70;11.73;;;9.60;99.90;;;;;;5094353;28;20625;-75
2022/10/26 03:30:37;;;;;;;14.60;10.67;;;9.60;99.90;;;;;;5094386;28;20275;-74
2022/10/26 03:33:04;;;;;;;19.37;11.20;;;9.60;99.90;;;;;;5094520;28;20254;-74
2022/10/26 03:35:31;;;;;;;15.37;12.13;;;9.50;99.90;;;;;;5094491;28;20200;-74
2022/10/26 03:37:59;;;;;;;22.40;12.53;;;9.60;99.90;;;;;;5094405;28;20204;-74
2022/10/26 03:40:25;;;;;;;17.17;12.13;;;9.50;99.90;;;;;;5094379;28;20253;-74
2022/10/26 03:42:52;;;;;;;19.17;11.80;;;9.60;99.90;;;;;;5094050;28;20204;-73
2022/10/26 03:45:19;;;;;;;21.23;12.30;;;9.60;99.90;;;;;;5094153;28;20731;-74
2022/10/26 03:47:46;;;;;;;18.97;11.83;;;9.50;99.90;;;;;;5094104;28;20208;-74
2022/10/26 03:50:15;;;;;;;15.87;12.37;;;9.50;99.90;;;;;;5094166;28;20192;-74
2022/10/26 03:52:41;;;;;;;20.27;11.90;;;9.50;99.90;;;;;;5094160;28;20262;-74
2022/10/26 03:55:10;;;;;;;16.23;11.20;;;9.50;99.90;;;;;;5093903;28;20196;-74
2022/10/26 03:57:41;;;;;;;14.60;10.47;;;9.50;99.90;;;;;;5093835;28;20201;-73
2022/10/26 04:00:09;;;;;;;16.50;10.53;;;9.60;99.90;;;;;;5093779;28;20635;-73
2022/10/26 04:02:35;;;;;;;14.40;10.83;;;9.60;99.90;;;;;;5094064;28;20261;-74
2022/10/26 04:05:02;;;;;;;15.10;11.20;;;9.60;99.90;;;;;;5093594;28;20270;-74
2022/10/26 04:07:29;;;;;;;15.43;11.27;;;9.60;99.90;;;;;;5093768;28;20196;-74
2022/10/26 04:09:55;;;;;;;14.07;10.53;;;9.60;99.90;;;;;;5093529;28;20754;-73
2022/10/26 04:12:23;;;;;;;14.40;10.90;;;9.70;99.90;;;;;;5093489;28;20200;-73
2022/10/26 04:14:50;;;;;;;18.10;10.60;;;9.70;99.90;;;;;;5093726;28;20548;-74
2022/10/26 04:17:17;;;;;;;15.90;10.20;;;9.70;99.90;;;;;;5093647;28;20197;-74
2022/10/26 04:19:43;;;;;;;15.70;10.20;;;9.70;99.90;;;;;;5093602;28;20208;-73
2022/10/26 04:22:10;;;;;;;18.23;10.60;;;9.70;99.90;;;;;;5093559;28;20201;-74
2022/10/26 04:24:37;;;;;;;14.57;10.90;;;9.70;99.90;;;;;;5093413;28;20192;-74
2022/10/26 04:27:03;;;;;;;15.97;11.07;;;9.70;99.90;;;;;;5093542;28;20254;-74
2022/10/26 04:29:31;;;;;;;15.07;11.27;;;9.70;99.90;;;;;;5093470;28;20232;-74
2022/10/26 04:31:58;;;;;;;15.63;11.60;;;9.80;99.90;;;;;;5093420;28;20197;-74
2022/10/26 04:34:24;;;;;;;16.17;10.87;;;9.80;99.90;;;;;;5092793;28;20528;-74
2022/10/26 04:36:51;;;;;;;17.23;12.03;;;9.80;99.90;;;;;;5093228;28;20204;-74
2022/10/26 04:39:18;;;;;;;19.33;14.03;;;9.80;99.90;;;;;;5093001;28;20204;-73
2022/10/26 04:41:44;;;;;;;18.90;12.70;;;9.90;99.90;;;;;;5093283;28;20196;-73
2022/10/26 04:44:11;;;;;;;16.37;11.97;;;9.90;99.90;;;;;;5093175;28;20613;-73
2022/10/26 04:46:39;;;;;;;20.63;12.77;;;9.90;99.90;;;;;;5093238;28;20200;-73
2022/10/26 04:49:05;;;;;;;18.67;11.70;;;10.00;99.90;;;;;;5093010;28;20224;-74
2022/10/26 04:51:32;;;;;;;14.00;11.03;;;10.00;99.90;;;;;;5092998;28;20246;-74
2022/10/26 04:53:59;;;;;;;14.53;11.30;;;10.00;99.90;;;;;;5092929;28;20540;-74
2022/10/26 04:56:25;;;;;;;12.27;10.40;;;10.00;99.90;;;;;;5092909;28;20224;-73
2022/10/26 04:58:54;;;;;;;14.63;11.47;;;10.00;99.90;;;;;;5092940;28;20200;-74
2022/10/26 05:01:20;;;;;;;15.67;10.77;;;10.10;99.90;;;;;;5092957;28;20624;-74
2022/10/26 05:03:51;;;;;;;14.77;11.03;;;10.10;99.90;;;;;;5092697;28;20273;-74
2022/10/26 05:06:18;;;;;;;18.33;11.60;;;10.10;99.90;;;;;;5092755;28;20246;-74
2022/10/26 05:08:45;;;;;;;20.60;12.90;;;10.20;99.90;;;;;;5092843;28;20232;-73
2022/10/26 05:11:12;;;;;;;16.47;10.00;;;10.30;99.90;;;;;;5092553;28;20260;-74
2022/10/26 05:13:39;;;;;;;12.97;9.33;;;10.40;99.90;;;;;;5092800;28;20196;-74
2022/10/26 05:16:06;;;;;;;13.17;10.13;;;10.50;99.90;;;;;;5092786;28;20555;-74
2022/10/26 05:18:33;;;;;;;14.70;9.20;;;10.60;99.90;;;;;;5092622;28;20192;-74
2022/10/26 05:21:01;;;;;;;13.77;9.40;;;10.60;99.90;;;;;;5092624;28;20200;-74
2022/10/26 05:23:27;;;;;;;13.30;9.10;;;10.60;99.90;;;;;;5092732;28;20205;-73
2022/10/26 05:25:55;;;;;;;15.57;10.30;;;10.60;99.90;;;;;;5092608;28;20598;-74
2022/10/26 05:28:22;;;;;;;11.93;9.57;;;10.70;99.90;;;;;;5092676;28;20230;-74
2022/10/26 05:30:49;;;;;;;10.67;9.07;;;10.70;99.90;;;;;;5092718;28;20230;-74
2022/10/26 05:33:16;;;;;;;21.47;10.87;;;10.60;99.90;;;;;;5092562;28;20201;-74
2022/10/26 05:35:42;;;;;;;17.27;11.20;;;10.60;99.90;;;;;;5092574;28;20196;-74
2022/10/26 05:38:13;;;;;;;17.13;10.90;;;10.50;99.90;;;;;;5092571;28;20254;-74
2022/10/26 05:40:46;;;;;;;15.13;9.93;;;10.40;99.90;;;;;;5092317;28;20582;-74
2022/10/26 05:43:13;;;;;;;14.40;9.97;;;10.30;99.90;;;;;;5092526;28;20253;-74
2022/10/26 05:45:40;;;;;;;16.83;12.07;;;10.10;99.90;;;;;;5092376;28;20254;-74
2022/10/26 05:48:06;;;;;;;14.77;10.87;;;10.10;99.90;;;;;;5095751;28;20647;-74
2022/10/26 05:50:33;;;;;;;17.03;11.63;;;10.00;99.90;;;;;;5096038;28;20269;-74
2022/10/26 05:53:00;;;;;;;19.67;12.30;;;10.00;99.90;;;;;;5096205;28;20606;-74
2022/10/26 05:55:29;;;;;;;18.03;11.97;;;10.10;99.90;;;;;;5096101;28;20672;-74
2022/10/26 05:57:56;;;;;;;13.07;10.40;;;10.10;99.90;;;;;;5096518;28;20257;-74
2022/10/26 06:00:25;;;;;;;13.30;10.00;;;10.10;99.90;;;;;;5096940;28;20615;-73
2022/10/26 06:03:07;;;;;;;12.10;10.00;;;10.10;99.90;;;;;;5095829;28;20200;-73
2022/10/26 06:05:38;;;;;;;12.87;9.83;;;10.20;99.90;;;;;;5096151;28;20555;-74
2022/10/26 06:08:09;;;;;;;14.40;10.73;;;10.30;99.90;;;;;;5096169;28;20208;-74
2022/10/26 06:10:38;;;;;;;11.67;9.87;;;10.30;99.90;;;;;;5095966;28;20223;-74
2022/10/26 06:13:05;;;;;;;11.27;9.77;;;10.50;99.90;;;;;;5095817;28;20208;-74
2022/10/26 06:15:39;;;;;;;13.53;9.90;;;10.60;99.90;;;;;;5096081;28;20222;-74
2022/10/26 06:18:16;;;;;;;15.00;10.70;;;10.70;99.90;;;;;;5095723;28;20222;-74
2022/10/26 06:20:51;;;;;;;13.07;9.27;;;10.90;99.90;;;;;;5095740;28;20196;-74
2022/10/26 06:23:32;;;;;;;12.20;9.90;;;10.90;99.90;;;;;;5095614;28;20727;-73
2022/10/26 06:26:08;;;;;;;11.00;9.20;;;10.80;99.90;;;;;;5095932;28;20203;-74
2022/10/26 06:28:43;;;;;;;11.30;9.50;;;10.80;99.90;;;;;;5095611;28;20727;-74
2022/10/26 06:31:14;;;;;;;11.60;9.43;;;10.90;99.90;;;;;;5095674;28;20249;-74
2022/10/26 06:33:41;;;;;;;11.53;9.40;;;10.90;99.90;;;;;;5095345;28;20651;-74
2022/10/26 06:36:19;;;;;;;13.67;9.27;;;10.90;99.90;;;;;;5095277;28;20200;-74
2022/10/26 06:38:47;;;;;;;12.67;9.20;;;11.00;99.90;;;;;;5095517;28;20199;-73
2022/10/26 06:41:17;;;;;;;15.00;9.63;;;11.10;99.90;;;;;;5095553;28;20258;-74
2022/10/26 06:43:45;;;;;;;12.87;8.73;;;11.20;99.90;;;;;;5095174;28;20232;-74
2022/10/26 06:46:19;;;;;;;16.53;9.60;;;11.20;99.90;;;;;;5095263;28;20253;-74
2022/10/26 06:48:53;;;;;;;12.90;8.23;;;11.30;99.90;;;;;;5095433;28;20223;-73
2022/10/26 06:51:20;;;;;;;11.27;8.33;;;11.30;99.90;;;;;;5095514;28;20301;-74
2022/10/26 06:53:55;;;;;;;10.57;7.67;;;11.40;99.90;;;;;;5095265;28;20196;-74
2022/10/26 06:56:23;;;;;;;8.90;7.00;;;11.40;99.90;;;;;;5095175;28;20199;-74
2022/10/26 06:58:52;;;;;;;8.23;6.80;;;11.40;99.90;;;;;;5094610;28;20232;-73
2022/10/26 07:01:19;;;;;;;7.90;7.00;;;11.50;99.90;;;;;;5095092;28;20200;-74
2022/10/26 07:03:46;;;;;;;12.30;7.20;;;11.50;99.90;;;;;;5094768;28;20228;-74
2022/10/26 07:06:13;;;;;;;11.00;6.73;;;11.50;99.90;;;;;;5095043;28;20204;-75
2022/10/26 07:08:39;;;;;;;9.60;6.57;;;11.60;99.90;;;;;;5094746;28;20196;-74
2022/10/26 07:11:08;;;;;;;9.73;6.87;;;11.70;99.90;;;;;;5094681;28;20659;-74
2022/10/26 07:13:36;;;;;;;10.93;6.77;;;11.80;99.90;;;;;;5094672;28;20204;-72
2022/10/26 07:16:02;;;;;;;8.50;6.27;;;11.80;99.90;;;;;;5094777;28;20192;-74
2022/10/26 07:18:29;;;;;;;7.40;5.80;;;11.90;99.90;;;;;;5094647;28;20196;-73
2022/10/26 07:20:58;;;;;;;7.20;6.30;;;11.90;99.90;;;;;;5094600;28;20255;-73
2022/10/26 07:23:24;;;;;;;8.23;5.33;;;12.00;99.90;;;;;;5094458;28;20639;-74
2022/10/26 07:25:51;;;;;;;8.80;5.87;;;12.00;99.90;;;;;;5094438;28;20253;-74
2022/10/26 07:28:18;;;;;;;11.17;6.10;;;12.10;99.90;;;;;;5094461;28;20254;-74
2022/10/26 07:30:46;;;;;;;8.20;6.27;;;12.10;99.90;;;;;;5094599;28;20220;-76
2022/10/26 07:33:14;;;;;;;9.37;6.37;;;12.20;99.90;;;;;;5094519;28;20204;-78
2022/10/26 07:35:41;;;;;;;9.27;5.83;;;12.20;99.90;;;;;;5094477;28;20200;-72
2022/10/26 07:38:08;;;;;;;8.67;5.73;;;12.20;99.90;;;;;;5094118;28;20192;-73
2022/10/26 07:40:36;;;;;;;7.57;5.83;;;12.20;99.90;;;;;;5093380;28;20200;-73
2022/10/26 07:43:03;;;;;;;8.77;5.90;;;12.20;99.90;;;;;;5092901;28;20206;-74
2022/10/26 07:45:30;;;;;;;8.13;5.07;;;12.20;99.90;;;;;;5093850;28;20582;-75
2022/10/26 07:47:58;;;;;;;8.90;5.27;;;12.30;99.90;;;;;;5093941;28;20559;-73
2022/10/26 07:50:25;;;;;;;11.73;5.20;;;12.30;99.90;;;;;;5094035;28;20254;-73
2022/10/26 07:52:51;;;;;;;8.80;5.20;;;12.40;99.90;;;;;;5093905;28;20246;-73
2022/10/26 07:55:19;;;;;;;7.10;5.60;;;12.50;99.90;;;;;;5094186;28;20192;-73
2022/10/26 07:57:45;;;;;;;6.83;4.80;;;12.50;99.90;;;;;;5093943;28;20196;-73
2022/10/26 08:00:13;;;;;;;6.63;4.90;;;12.50;99.90;;;;;;5092705;28;20708;-75
2022/10/26 08:02:40;;;;;;;8.80;4.87;;;12.60;99.90;;;;;;5084121;28;20220;-74
2022/10/26 08:05:08;;;;;;;7.30;5.30;;;12.70;99.90;;;;;;5093459;28;20236;-75
2022/10/26 08:07:41;;;;;;;9.30;5.43;;;12.80;99.90;;;;;;5093461;28;20204;-74
2022/10/26 08:10:08;;;;;;;6.33;4.90;;;12.80;99.90;;;;;;5092865;28;20222;-76
2022/10/26 08:12:35;;;;;;;7.40;4.93;;;12.90;99.90;;;;;;5092532;28;20242;-73
2022/10/26 08:15:02;;;;;;;5.90;4.90;;;12.80;99.90;;;;;;5093337;28;20200;-72
2022/10/26 08:17:28;;;;;;;5.83;4.90;;;12.70;99.90;;;;;;5100476;28;20202;-73
2022/10/26 08:19:55;;;;;;;9.53;5.77;;;12.70;99.90;;;;;;5086748;28;20246;-74
2022/10/26 08:22:23;;;;;;;13.40;6.63;;;12.70;99.90;;;;;;5073651;28;20279;-72
2022/10/26 08:24:50;;;;;;;9.60;6.50;;;12.70;99.90;;;;;;5073008;28;20201;-72
2022/10/26 08:27:16;;;;;;;10.47;7.07;;;12.80;99.90;;;;;;5073220;28;20716;-72
2022/10/26 08:29:43;;;;;;;9.40;7.63;;;12.90;99.90;;;;;;5072951;28;20282;-72
2022/10/26 08:32:10;;;;;;;12.07;8.30;;;13.00;99.90;;;;;;5073053;28;20196;-72
2022/10/26 08:34:36;;;;;;;12.43;10.57;;;13.10;99.90;;;;;;5072943;28;20262;-72
2022/10/26 08:37:03;;;;;;;21.47;16.73;;;13.10;99.90;;;;;;5073032;28;20205;-72
2022/10/26 08:39:31;;;;;;;12.13;9.20;;;13.20;99.90;;;;;;5077103;28;20200;-72
2022/10/26 08:42:04;;;;;;;31.00;27.57;;;13.20;99.90;;;;;;5093016;28;20257;-73
2022/10/26 08:44:36;;;;;;;19.77;17.00;;;13.40;99.90;;;;;;5093200;28;20677;-72
2022/10/26 08:47:09;;;;;;;20.37;17.77;;;13.50;99.90;;;;;;5093025;28;20200;-73
2022/10/26 08:49:42;;;;;;;11.57;10.17;;;13.60;99.90;;;;;;5093503;28;20609;-73
2022/10/26 08:52:13;;;;;;;17.40;14.73;;;13.60;99.90;;;;;;5093746;28;20257;-73
2022/10/26 08:54:44;;;;;;;15.07;12.90;;;13.80;99.90;;;;;;5093507;28;20253;-73
2022/10/26 08:57:18;;;;;;;7.73;5.20;;;14.00;99.90;;;;;;5093565;28;20264;-72
2022/10/26 08:59:50;;;;;;;8.97;5.43;;;14.00;99.90;;;;;;5093621;28;20203;-72
2022/10/26 09:02:18;;;;;;;10.13;5.80;;;14.20;99.90;;;;;;5093402;28;20201;-72
2022/10/26 09:04:45;;;;;;;5.30;4.77;;;14.30;99.90;;;;;;5092785;28;20227;-73
2022/10/26 09:07:24;;;;;;;20.20;16.17;;;14.30;99.90;;;;;;5092973;28;20204;-72
2022/10/26 09:10:01;;;;;;;22.90;18.13;;;14.30;99.90;;;;;;5092857;28;20277;-73
2022/10/26 09:12:39;;;;;;;7.90;6.13;;;14.50;99.90;;;;;;5093125;28;20254;-73
2022/10/26 09:15:14;;;;;;;9.03;5.43;;;14.60;99.90;;;;;;5092830;28;20203;-71
2022/10/26 09:17:49;;;;;;;6.57;5.30;;;14.80;99.90;;;;;;5092717;28;20658;-73
2022/10/26 09:20:48;;;;;;;7.90;5.30;;;15.00;99.90;;;;;;5093532;28;20598;-73
2022/10/26 09:23:28;;;;;;;9.18;5.20;;;15.30;99.90;;;;;;5096916;28;20716;-72
2022/10/26 09:25:59;;;;;;;10.13;6.85;;;15.80;99.90;;;;;;5097053;28;20264;-73
2022/10/26 09:28:28;;;;;;;6.22;4.82;;;15.90;99.90;;;;;;5096829;28;20196;-74
2022/10/26 09:30:58;;;;;;;8.63;4.60;;;16.10;99.90;;;;;;5096680;28;20277;-73
2022/10/26 09:33:26;;;;;;;6.07;4.35;;;16.10;99.90;;;;;;5096927;28;20605;-73
2022/10/26 09:35:59;;;;;;;12.23;4.50;;;16.40;99.90;;;;;;5096981;28;20196;-73
2022/10/26 09:38:29;;;;;;;5.90;3.88;;;16.40;99.90;;;;;;5096968;28;20609;-74
2022/10/26 09:41:02;;;;;;;6.50;4.53;;;16.40;99.90;;;;;;5097085;28;20245;-74
2022/10/26 09:43:33;;;;;;;8.20;3.90;;;16.50;99.90;;;;;;5096499;28;20269;-74
2022/10/26 09:45:59;;;;;;;7.05;3.70;;;16.90;99.90;;;;;;5096704;28;20204;-74
2022/10/26 09:48:33;;;;;;;10.07;3.78;;;17.30;99.90;;;;;;5096531;28;20196;-74
2022/10/26 09:51:00;;;;;;;9.30;3.80;;;17.30;99.90;;;;;;5096405;28;20613;-73
2022/10/26 09:53:27;;;;;;;6.28;4.28;;;17.50;99.90;;;;;;5096379;28;20196;-75
2022/10/26 09:56:05;;;;;;;11.55;4.43;;;17.60;99.90;;;;;;5095487;28;20246;-74
2022/10/26 09:58:35;;;;;;;7.68;3.83;;;17.70;99.90;;;;;;5096683;28;20214;-76
2022/10/26 10:01:02;;;;;;;5.43;3.67;;;17.50;99.90;;;;;;5096547;28;20200;-73
2022/10/26 10:03:31;;;;;;;7.25;4.30;;;17.30;99.90;;;;;;5096448;28;20220;-73
2022/10/26 10:06:15;;;;;;;5.47;3.53;;;17.20;99.90;;;;;;5096034;28;20204;-73
2022/10/26 10:08:42;;;;;;;10.82;3.72;;;17.00;99.90;;;;;;5096220;28;20196;-74
2022/10/26 10:11:12;;;;;;;5.30;3.70;;;16.80;99.90;;;;;;5096058;28;20220;-74
2022/10/26 10:13:41;;;;;;;7.22;3.88;;;16.70;99.90;;;;;;5095945;28;20261;-73
2022/10/26 10:16:12;;;;;;;6.40;3.65;;;16.50;99.90;;;;;;5095944;28;20258;-74
2022/10/26 10:18:40;;;;;;;7.45;3.90;;;16.50;99.90;;;;;;5095850;28;20597;-74
2022/10/26 10:21:07;;;;;;;9.55;3.78;;;16.60;99.90;;;;;;5095696;28;20206;-74
2022/10/26 10:23:36;;;;;;;4.07;3.45;;;16.60;99.90;;;;;;5095987;28;20197;-74
2022/10/26 10:26:09;;;;;;;8.40;3.95;;;16.70;99.90;;;;;;5095750;28;20196;-74
2022/10/26 10:28:38;;;;;;;10.05;4.00;;;16.70;99.90;;;;;;5095749;28;20219;-74
2022/10/26 10:31:18;;;;;;;8.07;3.45;;;16.80;99.90;;;;;;5095208;28;20232;-73
2022/10/26 10:33:45;;;;;;;7.05;3.60;;;17.10;99.90;;;;;;5095158;28;20256;-74
2022/10/26 10:36:18;;;;;;;6.53;3.90;;;17.30;99.90;;;;;;5095728;28;20227;-74
2022/10/26 10:38:47;;;;;;;6.95;3.45;;;17.60;99.90;;;;;;5095781;28;20718;-74
2022/10/26 10:41:25;;;;;;;6.35;4.53;;;17.90;99.90;;;;;;5095568;28;20204;-74
2022/10/26 10:43:55;;;;;;;9.45;4.03;;;18.00;99.90;;;;;;5095422;28;20597;-74
2022/10/26 10:46:25;;;;;;;6.03;3.20;;;17.90;99.90;;;;;;5095735;28;20265;-73
2022/10/26 10:48:55;;;;;;;11.35;3.80;;;17.80;99.90;;;;;;5095484;28;20602;-73
2022/10/26 10:51:25;;;;;;;8.63;3.22;;;17.70;99.90;;;;;;5095299;28;20224;-74
2022/10/26 10:53:54;;;;;;;6.80;3.60;;;17.70;99.90;;;;;;5095338;28;20200;-74
2022/10/26 10:56:37;;;;;;;4.70;3.33;;;17.90;99.90;;;;;;5095164;28;20199;-74
2022/10/26 10:59:30;;;;;;;5.38;3.63;;;18.10;99.90;;;;;;5095227;28;20200;-73
2022/10/26 11:02:33;;;;;;;7.40;3.85;;;18.20;99.90;;;;;;5095058;28;20200;-75
2022/10/26 11:05:21;;;;;;;9.75;3.05;;;18.00;99.90;;;;;;5032682;28;20762;-75
2022/10/26 11:07:54;;;;;;;6.13;3.10;;;18.00;99.90;;;;;;5088411;28;20287;-73
2022/10/26 11:10:25;;;;;;;8.02;3.42;;;17.80;99.90;;;;;;5095013;28;20220;-74
2022/10/26 11:12:57;;;;;;;8.45;3.30;;;17.80;99.90;;;;;;5094906;28;20196;-74
2022/10/26 11:15:28;;;;;;;5.90;3.13;;;18.10;99.90;;;;;;5094873;28;20269;-74
2022/10/26 11:18:03;;;;;;;7.60;3.60;;;18.20;99.90;;;;;;5094989;28;20204;-74
2022/10/26 11:20:34;;;;;;;7.07;3.22;;;18.20;99.90;;;;;;5094696;28;20200;-74
2022/10/26 11:23:07;;;;;;;11.43;3.20;;;18.30;99.90;;;;;;5094695;28;20196;-74
2022/10/26 11:25:40;;;;;;;7.65;3.20;;;18.30;99.90;;;;;;5094562;28;20192;-74
2022/10/26 11:28:18;;;;;;;6.57;3.28;;;18.30;99.90;;;;;;5094852;28;20253;-74
2022/10/26 11:30:50;;;;;;;12.88;3.95;;;18.50;99.90;;;;;;5094429;28;20740;-74
2022/10/26 11:33:22;;;;;;;8.13;3.70;;;18.80;99.90;;;;;;5094566;28;20242;-73
2022/10/26 11:35:55;;;;;;;7.60;3.17;;;18.80;99.90;;;;;;5094465;28;20231;-75
2022/10/26 11:38:29;;;;;;;7.70;3.75;;;19.00;99.90;;;;;;5094617;28;20253;-75
2022/10/26 11:41:01;;;;;;;7.07;3.05;;;18.90;99.90;;;;;;5094546;28;20282;-74
2022/10/26 11:43:33;;;;;;;5.63;3.45;;;19.10;99.90;;;;;;5093662;28;20257;-74
2022/10/26 11:46:06;;;;;;;10.65;3.63;;;18.80;99.90;;;;;;5094057;28;20192;-74
2022/10/26 11:48:39;;;;;;;9.10;3.60;;;18.80;99.90;;;;;;5094178;28;20200;-74
2022/10/26 11:51:16;;;;;;;9.13;3.38;;;18.60;99.90;;;;;;5094245;28;20296;-74
2022/10/26 11:53:46;;;;;;;7.50;3.40;;;18.80;99.90;;;;;;5093970;28;20241;-74
2022/10/26 11:56:16;;;;;;;12.10;3.80;;;19.20;99.90;;;;;;5094166;28;20200;-73
2022/10/26 11:58:44;;;;;;;14.85;4.00;;;19.30;99.90;;;;;;5093871;28;20650;-74
2022/10/26 12:01:15;;;;;;;5.75;3.15;;;19.70;99.90;;;;;;5094235;28;20266;-74
2022/10/26 12:03:46;;;;;;;6.55;3.33;;;19.30;99.90;;;;;;5093923;28;20637;-74
2022/10/26 12:06:15;;;;;;;8.75;3.97;;;19.40;99.90;;;;;;5093986;28;20219;-73
2022/10/26 12:08:45;;;;;;;8.57;3.60;;;19.30;99.90;;;;;;5093893;28;20200;-73
2022/10/26 12:11:25;;;;;;;9.30;3.60;;;20.40;99.90;;;;;;5093728;28;20228;-74
2022/10/26 12:13:58;;;;;;;6.43;3.53;;;23.10;99.90;;;;;;5093975;28;20257;-74
2022/10/26 12:16:38;;;;;;;6.38;3.20;;;25.80;99.90;;;;;;5093903;28;20196;-74
2022/10/26 12:19:12;;;;;;;7.15;3.10;;;24.20;99.90;;;;;;5093761;28;20611;-74
2022/10/26 12:21:41;;;;;;;10.02;3.13;;;25.10;99.90;;;;;;5093595;28;20218;-74
2022/10/26 12:24:27;;;;;;;10.18;3.28;;;23.20;99.90;;;;;;5093783;28;20295;-74
2022/10/26 12:26:55;;;;;;;8.10;3.35;;;25.00;99.90;;;;;;5093582;28;20287;-74
2022/10/26 12:29:46;;;;;;;4.88;2.83;;;24.20;99.90;;;;;;5093798;28;20269;-74
2022/10/26 12:32:49;;;;;;;8.80;3.30;;;22.50;99.90;;;;;;5094335;28;20231;-74
2022/10/26 12:35:43;;;;;;;7.95;3.45;;;21.90;99.90;;;;;;5093975;28;20196;-74
2022/10/26 12:38:52;;;;;;;5.88;2.83;;;21.70;99.90;;;;;;5093364;28;20594;-74
2022/10/26 12:41:24;;;;;;;5.57;3.00;;;21.40;99.90;;;;;;5063659;28;20201;-74
2022/10/26 12:43:55;;;;;;;10.05;3.55;;;20.40;99.90;;;;;;5093341;28;20252;-73
2022/10/26 12:46:38;;;;;;;7.03;3.38;;;20.10;99.90;;;;;;5093197;28;20257;-74
2022/10/26 12:49:40;;;;;;;8.82;3.03;;;20.10;99.90;;;;;;5091223;28;20192;-75
2022/10/26 12:52:28;;;;;;;9.98;3.50;;;20.40;99.90;;;;;;5093011;28;20641;-73
2022/10/26 12:55:46;;;;;;;6.32;3.03;;;20.50;99.90;;;;;;5092713;28;20200;-73
2022/10/26 12:58:29;;;;;;;6.82;3.22;;;20.60;99.90;;;;;;5092956;28;20207;-74